createdAt,value
2023-01-28T00:00:38.118Z,2.30
2023-01-28T00:03:26.818Z,2.50
2023-01-28T00:06:16.968Z,2.50
2023-01-28T00:09:05.587Z,2.30
2023-01-28T00:11:59.103Z,2.40
2023-01-28T00:14:49.183Z,2.40
2023-01-28T00:17:38.032Z,2.40
2023-01-28T00:20:26.825Z,2.40
2023-01-28T00:23:15.588Z,2.20
2023-01-28T00:26:06.145Z,2.10
2023-01-28T00:28:55.031Z,2.20
2023-01-28T00:31:45.162Z,2.10
2023-01-28T00:34:34.228Z,2.10
2023-01-28T00:37:23.353Z,2.30
2023-01-28T00:40:13.419Z,2.30
2023-01-28T00:43:02.481Z,2.30
2023-01-28T00:45:51.168Z,2.40
2023-01-28T00:48:42.291Z,2.50
2023-01-28T00:51:31.471Z,2.30
2023-01-28T00:54:20.324Z,2.20
2023-01-28T00:57:09.107Z,2.10
2023-01-28T00:59:57.885Z,2.30
2023-01-28T01:02:46.592Z,2.30
2023-01-28T01:05:36.678Z,2.40
2023-01-28T01:08:34.969Z,2.60
2023-01-28T01:11:23.798Z,2.40
2023-01-28T01:14:12.765Z,2.50
2023-01-28T01:17:02.312Z,2.70
2023-01-28T01:19:50.966Z,2.80
2023-01-28T01:22:40.918Z,2.70
2023-01-28T01:25:30.213Z,2.60
2023-01-28T01:28:18.933Z,2.60
2023-01-28T01:31:09.706Z,2.50
2023-01-28T01:33:58.405Z,2.60
2023-01-28T01:36:48.274Z,2.50
2023-01-28T01:39:38.447Z,2.50
2023-01-28T01:42:27.262Z,2.40
2023-01-28T01:45:17.898Z,2.30
2023-01-28T01:48:16.905Z,2.40
2023-01-28T01:51:09.281Z,2.70
2023-01-28T01:54:00.881Z,2.50
2023-01-28T01:56:52.136Z,2.30
2023-01-28T01:59:43.902Z,2.60
2023-01-28T02:02:35.153Z,2.60
2023-01-28T02:05:24.337Z,2.60
2023-01-28T02:08:22.104Z,2.50
2023-01-28T02:11:16.339Z,2.50
2023-01-28T02:14:07.508Z,2.80
2023-01-28T02:16:56.669Z,3.10
2023-01-28T02:19:50.618Z,3.00
2023-01-28T02:23:12.614Z,3.00
2023-01-28T02:26:36.830Z,2.70
2023-01-28T02:29:34.124Z,2.60
2023-01-28T02:32:31.278Z,2.40
2023-01-28T02:35:26.415Z,2.50
2023-01-28T02:38:21.483Z,2.70
2023-01-28T02:41:16.287Z,2.60
2023-01-28T02:44:05.739Z,2.60
2023-01-28T02:47:13.195Z,2.50
2023-01-28T02:50:05.730Z,2.70
2023-01-28T02:53:20.534Z,2.80
2023-01-28T02:56:19.036Z,2.80
2023-01-28T02:59:26.454Z,2.70
2023-01-28T03:02:24.884Z,2.80
2023-01-28T03:05:24.358Z,2.70
2023-01-28T03:08:27.570Z,2.50
2023-01-28T03:11:33.629Z,2.80
2023-01-28T03:14:40.919Z,2.70
2023-01-28T03:17:56.326Z,2.80
2023-01-28T03:21:08.842Z,2.60
2023-01-28T03:24:19.981Z,2.60
2023-01-28T03:27:33.343Z,2.60
2023-01-28T03:30:50.235Z,2.60
2023-01-28T03:34:09.549Z,2.40
2023-01-28T03:36:59.942Z,2.70
2023-01-28T03:39:58.229Z,2.60
2023-01-28T03:42:47.985Z,2.50
2023-01-28T03:45:55.688Z,2.40
2023-01-28T03:48:45.467Z,2.70
2023-01-28T03:51:37.402Z,2.50
2023-01-28T03:54:26.215Z,2.50
2023-01-28T03:57:16.205Z,2.40
2023-01-28T04:00:05.724Z,2.50
2023-01-28T04:03:02.948Z,2.50
2023-01-28T04:06:00.999Z,2.70
2023-01-28T04:09:06.768Z,2.60
2023-01-28T04:12:03.394Z,2.50
2023-01-28T04:14:57.338Z,2.50
2023-01-28T04:17:50.409Z,2.70
2023-01-28T04:20:50.980Z,2.60
2023-01-28T04:23:40.327Z,2.60
2023-01-28T04:26:32.414Z,2.80
2023-01-28T04:29:24.663Z,2.50
2023-01-28T04:32:14.699Z,2.50
2023-01-28T04:35:23.334Z,2.40
2023-01-28T04:38:21.994Z,2.30
2023-01-28T04:41:26.557Z,2.30
2023-01-28T04:44:17.997Z,2.40
2023-01-28T04:47:45.076Z,2.40
2023-01-28T04:51:00.190Z,2.40
2023-01-28T04:54:22.728Z,2.20
2023-01-28T04:57:11.579Z,2.40
2023-01-28T05:00:02.190Z,2.70
2023-01-28T05:02:51.205Z,2.50
2023-01-28T05:05:40.171Z,2.50
2023-01-28T05:08:42.344Z,2.60
2023-01-28T05:11:34.234Z,2.60
2023-01-28T05:14:26.220Z,2.40
2023-01-28T05:17:25.364Z,2.40
2023-01-28T05:20:15.774Z,2.60
2023-01-28T05:23:06.683Z,2.40
2023-01-28T05:26:04.803Z,2.40
2023-01-28T05:28:54.716Z,2.60
2023-01-28T05:31:43.528Z,2.60
2023-01-28T05:34:33.605Z,2.50
2023-01-28T05:37:31.554Z,2.50
2023-01-28T05:40:21.101Z,2.70
2023-01-28T05:43:09.840Z,2.80
2023-01-28T05:46:01.435Z,2.80
2023-01-28T05:49:13.749Z,2.80
2023-01-28T05:52:22.270Z,2.80
2023-01-28T05:55:11.392Z,2.70
2023-01-28T05:58:00.456Z,2.60
2023-01-28T06:00:49.212Z,2.50
2023-01-28T06:03:45.829Z,2.60
2023-01-28T06:06:34.665Z,2.70
2023-01-28T06:09:27.602Z,2.60
2023-01-28T06:12:16.587Z,2.50
2023-01-28T06:15:25.605Z,2.40
2023-01-28T06:18:22.468Z,2.40
2023-01-28T06:21:15.600Z,2.60
2023-01-28T06:24:04.678Z,2.70
2023-01-28T06:26:54.698Z,2.70
2023-01-28T06:29:43.594Z,2.70
2023-01-28T06:32:32.584Z,2.60
2023-01-28T06:35:21.829Z,2.40
2023-01-28T06:38:10.722Z,2.40
2023-01-28T06:40:59.604Z,2.40
2023-01-28T06:43:49.821Z,2.20
2023-01-28T06:46:38.659Z,2.50
2023-01-28T06:49:27.262Z,2.50
2023-01-28T06:52:15.899Z,2.30
2023-01-28T06:55:04.733Z,2.30
2023-01-28T06:57:53.437Z,2.20
2023-01-28T07:00:43.783Z,2.20
2023-01-28T07:03:32.582Z,2.30
2023-01-28T07:06:21.372Z,2.20
2023-01-28T07:09:10.194Z,2.20
2023-01-28T07:11:58.948Z,2.20
2023-01-28T07:14:47.539Z,2.20
2023-01-28T07:17:37.593Z,2.50
2023-01-28T07:20:26.640Z,2.50
2023-01-28T07:23:15.270Z,2.70
2023-01-28T07:26:04.370Z,2.70
2023-01-28T07:28:53.004Z,2.70
2023-01-28T07:31:41.845Z,2.60
2023-01-28T07:34:32.276Z,2.70
2023-01-28T07:37:22.060Z,3.00
2023-01-28T07:40:12.187Z,2.90
2023-01-28T07:43:01.448Z,2.80
2023-01-28T07:45:57.969Z,2.70
2023-01-28T07:48:46.963Z,2.70
2023-01-28T07:51:36.963Z,2.70
2023-01-28T07:54:25.674Z,2.80
2023-01-28T07:57:14.319Z,2.60
2023-01-28T08:00:03.116Z,2.70
2023-01-28T08:03:02.717Z,2.70
2023-01-28T08:05:53.733Z,2.50
2023-01-28T08:08:43.851Z,2.60
2023-01-28T08:11:32.835Z,2.50
2023-01-28T08:14:21.411Z,2.50
2023-01-28T08:17:10.100Z,2.40
2023-01-28T08:19:58.841Z,2.60
2023-01-28T08:22:47.867Z,2.90
2023-01-28T08:25:38.005Z,3.00
2023-01-28T08:28:26.713Z,3.00
2023-01-28T08:31:15.448Z,3.00
2023-01-28T08:34:04.164Z,3.10
2023-01-28T08:36:52.900Z,3.20
2023-01-28T08:39:41.582Z,3.20
2023-01-28T08:42:31.986Z,3.40
2023-01-28T08:45:22.627Z,3.10
2023-01-28T08:48:16.716Z,2.90
2023-01-28T08:51:05.719Z,3.00
2023-01-28T08:53:54.438Z,3.00
2023-01-28T08:56:44.978Z,2.80
2023-01-28T08:59:34.970Z,3.00
2023-01-28T09:02:31.592Z,3.20
2023-01-28T09:05:24.796Z,2.80
2023-01-28T09:08:16.254Z,3.00
2023-01-28T09:11:05.046Z,3.10
2023-01-28T09:13:57.125Z,3.20
2023-01-28T09:16:47.215Z,2.80
2023-01-28T09:19:35.978Z,2.90
2023-01-28T09:22:24.801Z,3.10
2023-01-28T09:25:13.460Z,2.70
2023-01-28T09:28:02.457Z,2.50
2023-01-28T09:30:51.162Z,2.50
2023-01-28T09:33:42.452Z,2.70
2023-01-28T09:36:32.743Z,2.70
2023-01-28T09:39:21.472Z,2.80
2023-01-28T09:42:24.652Z,2.70
2023-01-28T09:45:18.247Z,2.80
2023-01-28T09:48:14.879Z,2.80
2023-01-28T09:51:09.271Z,2.80
2023-01-28T09:54:02.111Z,2.90
2023-01-28T09:56:56.059Z,2.90
2023-01-28T09:59:44.869Z,2.90
2023-01-28T10:02:46.947Z,2.90
2023-01-28T10:05:41.149Z,2.90
2023-01-28T10:08:44.651Z,2.70
2023-01-28T10:11:49.662Z,2.90
2023-01-28T10:14:48.657Z,2.90
2023-01-28T10:17:42.819Z,2.80
2023-01-28T10:20:34.634Z,2.80
2023-01-28T10:23:28.053Z,2.60
2023-01-28T10:26:24.708Z,2.50
2023-01-28T10:29:17.814Z,2.40
2023-01-28T10:32:15.131Z,2.40
2023-01-28T10:35:03.832Z,2.40
2023-01-28T10:38:06.573Z,2.40
2023-01-28T10:41:02.975Z,2.40
2023-01-28T10:43:53.561Z,2.40
2023-01-28T10:46:46.380Z,2.60
2023-01-28T10:49:42.747Z,2.50
2023-01-28T10:52:32.244Z,2.60
2023-01-28T10:55:21.037Z,2.60
2023-01-28T10:58:18.840Z,2.60
2023-01-28T11:01:09.493Z,2.50
2023-01-28T11:04:00.163Z,2.60
2023-01-28T11:06:57.203Z,2.80
2023-01-28T11:09:48.471Z,3.00
2023-01-28T11:12:37.094Z,2.70
2023-01-28T11:15:26.378Z,2.60
2023-01-28T11:18:21.501Z,2.80
2023-01-28T11:21:20.961Z,3.00
2023-01-28T11:24:17.300Z,3.10
2023-01-28T11:27:16.340Z,3.10
2023-01-28T11:30:05.616Z,3.20
2023-01-28T11:33:09.244Z,3.10
2023-01-28T11:36:05.808Z,2.80
2023-01-28T11:38:56.834Z,3.00
2023-01-28T11:41:45.575Z,2.90
2023-01-28T11:44:34.226Z,3.10
2023-01-28T11:47:42.196Z,3.00
2023-01-28T11:50:40.174Z,2.60
2023-01-28T11:53:52.401Z,2.70
2023-01-28T11:56:59.928Z,3.00
2023-01-28T12:00:26.740Z,3.00
2023-01-28T12:03:32.196Z,3.30
2023-01-28T12:06:37.690Z,3.20
2023-01-28T12:09:36.985Z,3.10
2023-01-28T12:12:43.949Z,3.10
2023-01-28T12:16:10.111Z,3.10
2023-01-28T12:19:32.485Z,3.10
2023-01-28T12:22:35.419Z,2.80
2023-01-28T12:25:39.642Z,2.50
2023-01-28T12:28:44.770Z,2.60
2023-01-28T12:31:51.996Z,2.60
2023-01-28T12:35:22.095Z,2.50
2023-01-28T12:38:17.078Z,2.60
2023-01-28T12:41:13.731Z,2.70
2023-01-28T12:44:06.835Z,2.90
2023-01-28T12:46:59.730Z,3.00
2023-01-28T12:49:51.920Z,2.50
2023-01-28T12:52:45.168Z,2.40
2023-01-28T12:55:41.399Z,2.70
2023-01-28T12:58:40.865Z,2.80
2023-01-28T13:01:44.008Z,2.60
2023-01-28T13:04:39.985Z,2.30
2023-01-28T13:07:35.326Z,2.30
2023-01-28T13:10:30.242Z,2.30
2023-01-28T13:13:26.654Z,2.40
2023-01-28T13:16:19.311Z,2.50
2023-01-28T13:19:10.677Z,2.50
2023-01-28T13:21:59.623Z,2.80
2023-01-28T13:24:48.721Z,2.70
2023-01-28T13:27:40.455Z,2.80
2023-01-28T13:30:31.574Z,2.90
2023-01-28T13:33:33.236Z,3.10
2023-01-28T13:36:28.912Z,3.10
2023-01-28T13:39:22.461Z,3.20
2023-01-28T13:42:23.159Z,3.20
2023-01-28T13:45:25.036Z,3.20
2023-01-28T13:48:29.324Z,3.10
2023-01-28T13:51:24.033Z,3.10
2023-01-28T13:54:18.409Z,3.20
2023-01-28T13:57:31.064Z,3.20
2023-01-28T14:00:27.153Z,3.10
2023-01-28T14:03:46.238Z,3.00
2023-01-28T14:07:10.202Z,3.00
2023-01-28T14:10:24.809Z,3.00
2023-01-28T14:14:02.977Z,2.80
2023-01-28T14:16:56.698Z,2.90
2023-01-28T14:19:46.562Z,3.00
2023-01-28T14:22:37.275Z,3.10
2023-01-28T14:25:33.983Z,3.10
2023-01-28T14:28:32.304Z,3.10
2023-01-28T14:31:30.312Z,3.10
2023-01-28T14:34:25.811Z,3.30
2023-01-28T14:37:16.819Z,3.10
2023-01-28T14:40:09.953Z,3.20
2023-01-28T14:42:59.987Z,3.20
2023-01-28T14:46:05.949Z,3.40
2023-01-28T14:49:17.414Z,3.30
2023-01-28T14:52:21.265Z,3.10
2023-01-28T14:55:27.789Z,3.10
2023-01-28T14:58:20.939Z,3.20
2023-01-28T15:01:22.037Z,3.00
2023-01-28T15:04:24.325Z,3.20
2023-01-28T15:07:21.399Z,3.30
2023-01-28T15:10:17.908Z,3.40
2023-01-28T15:13:10.972Z,3.50
2023-01-28T15:16:00.942Z,3.50
2023-01-28T15:18:51.587Z,3.20
2023-01-28T15:21:41.736Z,3.40
2023-01-28T15:24:31.098Z,3.30
2023-01-28T15:27:27.911Z,3.10
2023-01-28T15:30:25.768Z,3.10
2023-01-28T15:33:17.172Z,3.30
2023-01-28T15:36:07.467Z,3.40
2023-01-28T15:38:57.804Z,3.40
2023-01-28T15:41:50.480Z,3.30
2023-01-28T15:44:45.900Z,3.30
2023-01-28T15:47:36.298Z,3.30
2023-01-28T15:50:27.144Z,3.30
2023-01-28T15:53:16.332Z,3.50
2023-01-28T15:56:09.822Z,3.50
2023-01-28T15:59:12.973Z,3.30
2023-01-28T16:02:19.194Z,3.30
2023-01-28T16:05:10.633Z,3.40
2023-01-28T16:08:00.838Z,3.50
2023-01-28T16:10:54.979Z,3.20
2023-01-28T16:13:45.676Z,3.00
2023-01-28T16:16:36.929Z,3.00
2023-01-28T16:19:34.388Z,3.10
2023-01-28T16:22:31.308Z,3.30
2023-01-28T16:25:32.474Z,3.20
2023-01-28T16:28:21.623Z,3.20
2023-01-28T16:31:12.936Z,3.00
2023-01-28T16:34:01.800Z,3.10
2023-01-28T16:36:51.908Z,3.10
2023-01-28T16:39:40.649Z,3.10
2023-01-28T16:42:30.697Z,3.30
2023-01-28T16:45:22.486Z,3.30
2023-01-28T16:48:11.172Z,3.10
2023-01-28T16:51:00.037Z,3.30
2023-01-28T16:53:50.977Z,3.20
2023-01-28T16:56:45.497Z,3.20
2023-01-28T16:59:34.621Z,3.30
2023-01-28T17:02:23.332Z,3.20
2023-01-28T17:05:12.791Z,3.30
2023-01-28T17:08:01.981Z,3.40
2023-01-28T17:10:55.766Z,3.30
2023-01-28T17:13:44.560Z,3.30
2023-01-28T17:16:33.354Z,3.20
2023-01-28T17:19:22.101Z,3.30
2023-01-28T17:22:10.722Z,3.40
2023-01-28T17:24:59.713Z,3.40
2023-01-28T17:27:51.328Z,3.40
2023-01-28T17:30:44.760Z,3.30
2023-01-28T17:33:33.498Z,3.30
2023-01-28T17:36:22.210Z,3.30
2023-01-28T17:39:11.098Z,3.30
2023-01-28T17:42:00.014Z,3.20
2023-01-28T17:44:50.088Z,3.20
2023-01-28T17:47:39.132Z,3.30
2023-01-28T17:50:28.002Z,3.20
2023-01-28T17:53:20.851Z,3.30
2023-01-28T17:56:17.348Z,3.40
2023-01-28T17:59:06.738Z,3.20
2023-01-28T18:01:57.348Z,3.30
2023-01-28T18:04:46.045Z,3.20
2023-01-28T18:07:34.725Z,3.30
2023-01-28T18:10:23.549Z,3.30
2023-01-28T18:13:12.305Z,3.40
2023-01-28T18:16:01.299Z,3.40
2023-01-28T18:18:52.042Z,3.40
2023-01-28T18:21:52.786Z,3.40
2023-01-28T18:24:42.185Z,3.50
2023-01-28T18:27:31.275Z,3.50
2023-01-28T18:30:20.685Z,3.50
2023-01-28T18:33:09.449Z,3.50
2023-01-28T18:35:59.965Z,3.60
2023-01-28T18:38:48.961Z,3.60
2023-01-28T18:41:37.651Z,3.50
2023-01-28T18:44:27.940Z,3.50
2023-01-28T18:47:17.766Z,3.20
2023-01-28T18:50:07.635Z,3.30
2023-01-28T18:52:57.680Z,3.40
2023-01-28T18:55:46.678Z,3.40
2023-01-28T18:58:35.362Z,3.50
2023-01-28T19:01:24.262Z,3.50
2023-01-28T19:04:13.061Z,3.50
2023-01-28T19:07:02.467Z,3.60
2023-01-28T19:09:53.066Z,3.40
2023-01-28T19:12:41.864Z,3.30
2023-01-28T19:15:31.324Z,3.30
2023-01-28T19:18:21.102Z,3.50
2023-01-28T19:21:10.196Z,3.50
2023-01-28T19:24:01.227Z,3.60
2023-01-28T19:26:51.541Z,3.40
2023-01-28T19:29:40.382Z,3.30
2023-01-28T19:32:30.111Z,3.20
2023-01-28T19:35:19.151Z,3.20
2023-01-28T19:38:09.396Z,3.30
2023-01-28T19:41:04.842Z,3.30
2023-01-28T19:43:55.308Z,3.20
2023-01-28T19:46:47.989Z,3.20
2023-01-28T19:49:37.248Z,3.10
2023-01-28T19:52:26.160Z,3.20
2023-01-28T19:55:15.281Z,3.10
2023-01-28T19:58:04.301Z,3.00
2023-01-28T20:00:54.732Z,3.10
2023-01-28T20:03:44.013Z,3.00
2023-01-28T20:06:34.236Z,2.90
2023-01-28T20:09:24.445Z,3.00
2023-01-28T20:12:15.091Z,3.00
2023-01-28T20:15:04.200Z,3.00
2023-01-28T20:17:55.268Z,3.00
2023-01-28T20:20:44.035Z,3.10
2023-01-28T20:23:37.600Z,3.00
2023-01-28T20:26:29.022Z,3.00
2023-01-28T20:29:22.447Z,3.00
2023-01-28T20:32:17.762Z,2.90
2023-01-28T20:35:11.238Z,3.00
2023-01-28T20:38:04.253Z,3.00
2023-01-28T20:40:53.487Z,3.00
2023-01-28T20:43:43.672Z,3.10
2023-01-28T20:46:36.922Z,3.10
2023-01-28T20:49:28.046Z,3.20
2023-01-28T20:52:18.808Z,3.10
2023-01-28T20:55:08.810Z,3.20
2023-01-28T20:57:57.716Z,3.10
2023-01-28T21:00:46.853Z,3.20
2023-01-28T21:03:36.128Z,3.10
2023-01-28T21:06:25.495Z,2.90
2023-01-28T21:09:18.791Z,3.00
2023-01-28T21:12:08.438Z,3.00
2023-01-28T21:14:57.382Z,3.10
2023-01-28T21:17:46.213Z,3.10
2023-01-28T21:20:35.673Z,2.80
2023-01-28T21:23:25.264Z,2.80
2023-01-28T21:26:16.213Z,2.70
2023-01-28T21:29:05.382Z,2.80
2023-01-28T21:31:54.274Z,3.00
2023-01-28T21:34:43.808Z,2.90
2023-01-28T21:37:33.031Z,3.00
2023-01-28T21:40:22.094Z,2.80
2023-01-28T21:43:13.396Z,2.80
2023-01-28T21:46:03.401Z,2.90
2023-01-28T21:48:56.569Z,2.90
2023-01-28T21:51:47.330Z,2.80
2023-01-28T21:54:36.524Z,2.80
2023-01-28T21:57:25.335Z,2.90
2023-01-28T22:00:16.644Z,2.80
2023-01-28T22:03:06.301Z,2.80
2023-01-28T22:05:55.806Z,2.80
2023-01-28T22:08:44.903Z,2.80
2023-01-28T22:11:33.781Z,2.70
2023-01-28T22:14:26.069Z,2.80
2023-01-28T22:17:17.464Z,2.60
2023-01-28T22:20:07.321Z,2.70
2023-01-28T22:22:59.624Z,2.70
2023-01-28T22:25:48.612Z,2.70
2023-01-28T22:28:41.867Z,2.70
2023-01-28T22:31:32.862Z,2.70
2023-01-28T22:34:23.633Z,2.70
2023-01-28T22:37:12.446Z,2.80
2023-01-28T22:40:01.399Z,2.70
2023-01-28T22:42:50.274Z,2.60
2023-01-28T22:45:39.011Z,2.60
2023-01-28T22:48:28.011Z,2.60
2023-01-28T22:51:21.676Z,2.60
2023-01-28T22:54:12.018Z,2.60
2023-01-28T22:57:01.378Z,2.60
2023-01-28T22:59:59.768Z,2.50
2023-01-28T23:02:49.329Z,2.50
2023-01-28T23:05:38.590Z,2.40
2023-01-28T23:08:30.582Z,2.30
2023-01-28T23:11:27.471Z,2.50
2023-01-28T23:14:33.681Z,2.50
2023-01-28T23:17:39.545Z,2.60
2023-01-28T23:20:45.696Z,2.50
2023-01-28T23:23:53.267Z,2.50
2023-01-28T23:26:42.072Z,2.40
2023-01-28T23:29:32.470Z,2.50
2023-01-28T23:32:23.465Z,2.50
2023-01-28T23:35:13.407Z,2.40
2023-01-28T23:38:02.514Z,2.40
2023-01-28T23:40:52.602Z,2.60
2023-01-28T23:43:41.343Z,2.60
2023-01-28T23:46:39.018Z,2.60
2023-01-28T23:49:28.844Z,2.70
2023-01-28T23:52:17.845Z,2.80
2023-01-28T23:55:07.693Z,2.80
2023-01-28T23:57:57.732Z,2.70
